Time;durP1;ratioP1;P1;durP2;ratioP2;P2;SDS_P1;SDS_P2;PMS_P1;PMS_P2;Temp;Humidity;BMP_temperature;BMP_pressure;BME280_temperature;BME280_humidity;BME280_pressure;Samples;Min_cycle;Max_cycle;Signal;HPM_P1;HPM_P2
2022/05/04 07:18:43;;;;;;;7.47;2.50;;;9.50;90.00;;;;;;5133650;27;20329;-60
2022/05/04 07:21:09;;;;;;;5.72;2.03;;;9.40;90.60;;;;;;5108213;27;20469;-59
2022/05/04 07:23:34;;;;;;;7.78;2.80;;;9.50;90.80;;;;;;5117941;28;20047;-60
2022/05/04 07:26:00;;;;;;;7.45;2.15;;;9.60;91.30;;;;;;5117433;27;20046;-60
2022/05/04 07:28:26;;;;;;;8.15;2.10;;;9.70;91.40;;;;;;5093152;28;22493;-60
2022/05/04 07:30:52;;;;;;;10.27;2.28;;;9.70;91.30;;;;;;5109664;28;20478;-59
2022/05/04 07:33:18;;;;;;;5.75;2.05;;;9.70;91.20;;;;;;5115665;28;20041;-59
2022/05/04 07:35:43;;;;;;;7.60;2.28;;;9.70;90.90;;;;;;5121080;28;20051;-60
2022/05/04 07:38:09;;;;;;;6.63;2.60;;;9.70;90.80;;;;;;5121517;27;20028;-60
2022/05/04 07:43:19;;;;;;;14.13;2.65;;;9.80;90.60;;;;;;5115989;28;20047;-60
2022/05/04 07:45:44;;;;;;;11.73;2.67;;;9.70;90.30;;;;;;5120685;28;20042;-60
2022/05/04 07:48:10;;;;;;;13.57;2.88;;;9.80;90.80;;;;;;5116443;27;20133;-60
2022/05/04 07:50:37;;;;;;;9.80;2.65;;;9.90;90.80;;;;;;5123187;28;20092;-60
2022/05/04 07:53:03;;;;;;;10.75;2.30;;;10.00;90.80;;;;;;5123687;27;20494;-60
2022/05/04 07:55:30;;;;;;;9.85;2.33;;;10.10;90.60;;;;;;5116350;27;20092;-59
2022/05/04 07:57:56;;;;;;;8.63;2.35;;;10.10;90.00;;;;;;5116861;27;20039;-57
2022/05/04 08:05:50;;;;;;;;;;;10.20;89.60;;;;;;5112611;27;20583;-59
2022/05/04 08:08:16;;;;;;;10.32;2.58;;;10.00;87.60;;;;;;5119389;28;19977;-58
2022/05/04 08:10:42;;;;;;;9.55;2.38;;;10.10;90.10;;;;;;5121683;27;20067;-61
2022/05/04 08:13:08;;;;;;;8.52;2.20;;;10.20;90.30;;;;;;5122101;28;20031;-58
2022/05/04 08:15:33;;;;;;;10.10;2.35;;;10.30;90.10;;;;;;5120926;28;20054;-60
2022/05/04 08:17:59;;;;;;;7.80;2.25;;;10.40;89.30;;;;;;5103707;28;20402;-58
2022/05/04 08:20:26;;;;;;;8.27;2.08;;;10.30;89.20;;;;;;5117728;27;20118;-58
2022/05/04 08:22:52;;;;;;;7.03;2.08;;;10.30;89.20;;;;;;5123050;28;20043;-59
2022/05/04 08:25:18;;;;;;;7.47;2.33;;;10.40;89.40;;;;;;5121417;28;20070;-59
2022/05/04 08:27:44;;;;;;;8.90;1.98;;;10.40;88.10;;;;;;5111502;28;20067;-61
2022/05/04 08:30:10;;;;;;;5.93;2.28;;;10.50;88.60;;;;;;5096048;28;20039;-58
2022/05/04 08:32:36;;;;;;;8.30;2.25;;;10.50;87.80;;;;;;5095392;28;20134;-57
2022/05/04 08:35:02;;;;;;;10.32;2.35;;;10.50;87.90;;;;;;5102225;28;20126;-59
2022/05/04 08:37:28;;;;;;;10.18;2.28;;;10.60;88.30;;;;;;5085666;28;20055;-60
2022/05/04 08:39:55;;;;;;;8.48;2.70;;;10.70;88.30;;;;;;5090135;28;20044;-63
2022/05/04 08:42:21;;;;;;;10.93;2.60;;;10.80;89.00;;;;;;5101192;28;20036;-62
2022/05/04 08:44:51;;;;;;;9.30;2.63;;;10.90;88.40;;;;;;5099057;28;20032;-61
2022/05/04 08:47:21;;;;;;;7.55;3.13;;;10.90;87.30;;;;;;5097929;28;20528;-60
2022/05/04 08:49:48;;;;;;;9.80;2.47;;;10.90;87.00;;;;;;5093119;28;20079;-60
2022/05/04 08:52:15;;;;;;;6.13;2.28;;;10.90;87.20;;;;;;5093289;28;20437;-60
2022/05/04 08:54:44;;;;;;;7.93;2.40;;;10.90;86.20;;;;;;5097262;28;20040;-62
2022/05/04 08:57:09;;;;;;;8.48;2.33;;;10.80;84.40;;;;;;5087436;28;20485;-59
2022/05/04 08:59:35;;;;;;;5.72;2.50;;;10.60;84.60;;;;;;5092033;28;20047;-59
2022/05/04 09:02:01;;;;;;;6.85;2.40;;;10.50;84.10;;;;;;5097340;27;20050;-60
2022/05/04 09:04:30;;;;;;;7.90;2.38;;;10.50;85.10;;;;;;5094911;28;20032;-59
2022/05/04 09:06:56;;;;;;;7.90;2.42;;;10.60;86.10;;;;;;5082369;28;21010;-62
2022/05/04 09:09:22;;;;;;;4.43;2.20;;;10.80;86.20;;;;;;5074686;28;20062;-63
2022/05/04 09:11:48;;;;;;;6.40;2.20;;;10.90;85.60;;;;;;5092114;28;20039;-60
2022/05/04 09:14:18;;;;;;;13.10;2.85;;;11.10;85.90;;;;;;5087484;28;20040;-60
2022/05/04 09:16:44;;;;;;;11.48;3.63;;;11.20;85.90;;;;;;5094205;28;20045;-59
2022/05/04 09:19:15;;;;;;;8.07;2.00;;;11.60;85.10;;;;;;5096895;28;20036;-62
2022/05/04 09:21:41;;;;;;;8.82;2.25;;;12.00;84.80;;;;;;5092007;28;20150;-64
2022/05/04 09:24:08;;;;;;;5.65;2.08;;;12.30;82.50;;;;;;5087921;28;20035;-60
2022/05/04 09:26:45;;;;;;;4.82;1.95;;;12.60;81.30;;;;;;5096670;28;20504;-61
2022/05/04 09:29:12;;;;;;;7.93;2.65;;;12.90;81.10;;;;;;5088221;28;20034;-61
2022/05/04 09:31:41;;;;;;;7.57;2.63;;;13.10;81.90;;;;;;5089421;28;20384;-58
2022/05/04 09:34:08;;;;;;;5.45;2.45;;;13.00;74.70;;;;;;5097198;27;20043;-63
2022/05/04 09:45:08;;;;;;;11.32;3.05;;;12.40;75.30;;;;;;5092956;28;20046;-58
2022/05/04 09:47:46;;;;;;;5.00;2.20;;;12.10;79.20;;;;;;5096096;28;20105;-64
2022/05/04 09:50:13;;;;;;;9.57;2.67;;;12.10;79.20;;;;;;5100166;28;20286;-62
2022/05/04 09:52:46;;;;;;;7.75;2.80;;;12.10;79.40;;;;;;5104267;27;20044;-55
2022/05/04 09:55:13;;;;;;;11.15;2.85;;;12.10;79.30;;;;;;5102911;28;20035;-53
2022/05/04 09:57:40;;;;;;;10.98;3.83;;;12.10;79.90;;;;;;5106639;28;20051;-58
2022/05/04 10:00:07;;;;;;;6.82;2.58;;;11.90;78.00;;;;;;5104976;28;20036;-53
2022/05/04 10:02:32;;;;;;;9.43;2.97;;;11.70;78.30;;;;;;5110524;28;20063;-57
2022/05/04 10:04:59;;;;;;;9.68;3.50;;;11.50;79.50;;;;;;5110346;28;20524;-55
2022/05/04 10:07:26;;;;;;;9.02;3.28;;;11.70;80.70;;;;;;5103067;28;20044;-53
2022/05/04 10:09:52;;;;;;;9.02;3.05;;;12.10;81.70;;;;;;5107684;28;20039;-58
2022/05/04 10:12:19;;;;;;;10.45;2.83;;;12.60;81.00;;;;;;5109091;28;20236;-58
2022/05/04 10:14:45;;;;;;;10.23;2.55;;;13.10;81.90;;;;;;5107925;28;20414;-58
2022/05/04 10:17:19;;;;;;;8.25;2.38;;;13.50;79.40;;;;;;5102349;28;20040;-56
2022/05/04 10:19:57;;;;;;;;;;;13.40;75.90;;;;;;5110347;27;20031;-61
2022/05/04 10:22:42;;;;;;;9.57;2.75;;;12.70;73.80;;;;;;5083330;28;20281;-60
2022/05/04 10:25:09;;;;;;;7.75;2.60;;;12.60;77.70;;;;;;5089330;28;20075;-60
2022/05/04 10:27:40;;;;;;;4.85;2.50;;;12.60;77.20;;;;;;5091332;28;20378;-61
2022/05/04 10:32:56;;;;;;;9.95;3.25;;;12.90;77.90;;;;;;5092849;28;20051;-59
2022/05/04 10:35:31;;;;;;;6.63;3.03;;;13.40;78.00;;;;;;5077790;28;20054;-63
2022/05/04 10:37:59;;;;;;;8.65;2.60;;;13.80;78.30;;;;;;5083568;28;20485;-59
2022/05/04 10:40:39;;;;;;;7.43;2.30;;;14.10;77.40;;;;;;5082907;28;20403;-63
2022/05/04 10:43:18;;;;;;;8.02;2.70;;;14.20;77.60;;;;;;5091500;28;20039;-60
2022/05/04 10:45:47;;;;;;;9.77;2.60;;;14.20;77.20;;;;;;5086744;28;20036;-60
2022/05/04 10:48:13;;;;;;;9.30;2.90;;;14.20;75.40;;;;;;5086638;28;20402;-61
2022/05/04 10:51:11;;;;;;;8.77;2.47;;;13.80;75.90;;;;;;5083135;28;20092;-63
2022/05/04 10:53:39;;;;;;;9.20;2.80;;;13.70;76.40;;;;;;5085956;28;20501;-59
2022/05/04 10:56:08;;;;;;;9.05;2.92;;;13.70;74.60;;;;;;5071570;28;20505;-61
2022/05/04 10:59:03;;;;;;;7.10;2.67;;;13.50;75.40;;;;;;5082042;28;20050;-64
2022/05/04 11:01:31;;;;;;;8.82;2.92;;;13.60;75.60;;;;;;5073609;28;20172;-60
2022/05/04 11:04:14;;;;;;;6.65;2.90;;;13.60;76.00;;;;;;5090379;28;20557;-61
2022/05/04 11:06:45;;;;;;;8.90;2.67;;;13.70;76.90;;;;;;5099124;28;20459;-60
2022/05/04 11:09:13;;;;;;;9.20;2.60;;;13.90;78.80;;;;;;5105910;27;20031;-61
2022/05/04 11:11:42;;;;;;;11.38;3.22;;;14.00;77.60;;;;;;5081760;28;20070;-60
2022/05/04 11:14:10;;;;;;;8.55;3.53;;;14.10;76.70;;;;;;5101263;28;20116;-62
2022/05/04 11:16:37;;;;;;;9.73;2.83;;;14.20;75.60;;;;;;5081284;28;20124;-63
2022/05/04 11:19:04;;;;;;;8.55;2.80;;;14.10;75.30;;;;;;5097358;28;20044;-60
2022/05/04 11:21:31;;;;;;;8.88;3.00;;;14.00;74.80;;;;;;5094755;28;20100;-61
2022/05/04 11:24:00;;;;;;;6.78;2.70;;;14.00;74.50;;;;;;5099157;28;20122;-60
2022/05/04 11:26:32;;;;;;;7.75;2.80;;;14.00;74.70;;;;;;5098129;28;20046;-61
2022/05/04 11:28:58;;;;;;;8.30;3.00;;;14.10;76.10;;;;;;5100699;28;20036;-64
2022/05/04 11:31:24;;;;;;;8.55;2.55;;;14.60;76.50;;;;;;5096785;28;20040;-61
2022/05/04 11:33:50;;;;;;;7.30;2.92;;;14.80;75.60;;;;;;5101686;28;20609;-59
2022/05/04 11:36:20;;;;;;;8.32;3.10;;;15.10;74.00;;;;;;5093456;28;20067;-60
2022/05/04 11:38:47;;;;;;;5.40;3.00;;;15.30;73.20;;;;;;5098681;28;20449;-60
2022/05/04 11:41:14;;;;;;;10.40;3.58;;;15.00;71.70;;;;;;5100922;28;20072;-60
2022/05/04 11:43:40;;;;;;;9.82;3.17;;;15.20;70.70;;;;;;5102760;28;20039;-63
2022/05/04 11:46:11;;;;;;;11.50;3.58;;;14.90;69.90;;;;;;5105904;28;20417;-62
2022/05/04 11:48:42;;;;;;;9.02;3.70;;;15.30;70.20;;;;;;5098731;28;20051;-61
2022/05/04 11:51:08;;;;;;;8.80;3.38;;;15.50;69.60;;;;;;5099957;28;20378;-61
2022/05/04 11:53:36;;;;;;;7.55;3.17;;;15.00;66.30;;;;;;5105688;28;20043;-60
2022/05/04 11:56:03;;;;;;;9.90;3.15;;;14.90;69.90;;;;;;5099808;28;20043;-65
2022/05/04 11:58:33;;;;;;;7.05;3.38;;;15.10;69.20;;;;;;5104759;28;20035;-62
2022/05/04 12:01:01;;;;;;;6.70;2.90;;;14.40;67.70;;;;;;5099342;28;20031;-57
2022/05/04 12:03:30;;;;;;;7.75;3.10;;;14.80;71.00;;;;;;5095902;28;20124;-58
2022/05/04 12:05:57;;;;;;;7.15;3.45;;;15.10;70.20;;;;;;5095462;28;20516;-62
2022/05/04 12:08:24;;;;;;;9.52;3.63;;;15.50;69.50;;;;;;5080014;28;20044;-61
2022/05/04 12:10:50;;;;;;;8.48;3.22;;;15.50;66.40;;;;;;5100254;28;20040;-60
2022/05/04 12:13:22;;;;;;;9.52;3.92;;;15.60;69.20;;;;;;5106287;28;20024;-60
2022/05/04 12:15:49;;;;;;;7.25;3.65;;;16.00;70.00;;;;;;5110361;28;20065;-62
2022/05/04 12:18:15;;;;;;;6.80;3.50;;;16.40;69.40;;;;;;5101690;28;20305;-60
2022/05/04 12:20:47;;;;;;;9.73;3.67;;;16.30;66.60;;;;;;5107084;28;20036;-62
2022/05/04 12:23:14;;;;;;;9.57;3.65;;;16.60;66.60;;;;;;5110054;28;20036;-61
2022/05/04 12:25:42;;;;;;;9.20;3.88;;;16.80;64.80;;;;;;5084750;28;20253;-59
2022/05/04 12:28:09;;;;;;;9.13;3.40;;;16.60;64.60;;;;;;5114658;27;20421;-60
2022/05/04 12:33:32;;;;;;;8.85;3.53;;;16.70;64.80;;;;;;5106243;28;20043;-57
2022/05/04 12:36:04;;;;;;;6.75;3.53;;;16.90;66.40;;;;;;5111116;28;20048;-61
2022/05/04 12:38:33;;;;;;;10.05;3.40;;;17.10;64.30;;;;;;5112483;27;20075;-58
2022/05/04 12:41:01;;;;;;;8.73;3.67;;;17.20;65.00;;;;;;5098927;28;20036;-64
2022/05/04 12:43:33;;;;;;;7.70;4.07;;;17.40;64.30;;;;;;5101611;27;20040;-62
2022/05/04 12:45:59;;;;;;;6.75;3.40;;;17.60;65.60;;;;;;5109051;27;20047;-60
2022/05/04 12:48:26;;;;;;;7.32;3.70;;;17.90;65.10;;;;;;5112643;27;20043;-61
2022/05/04 12:50:56;;;;;;;12.23;3.88;;;17.70;62.50;;;;;;5112455;27;20243;-61
2022/05/04 12:53:26;;;;;;;11.60;3.75;;;17.70;59.50;;;;;;5108762;28;20367;-63
2022/05/04 12:58:37;;;;;;;8.20;3.92;;;17.80;63.00;;;;;;5109019;28;20055;-61
2022/05/04 13:01:04;;;;;;;8.82;4.07;;;17.50;62.50;;;;;;5104087;28;20035;-57
2022/05/04 13:03:31;;;;;;;7.47;3.85;;;17.60;63.30;;;;;;5111848;28;20042;-64
2022/05/04 13:05:56;;;;;;;7.80;4.00;;;17.90;64.50;;;;;;5093476;28;20043;-62
2022/05/04 13:08:23;;;;;;;11.88;4.07;;;18.30;64.10;;;;;;5110355;28;20044;-61
2022/05/04 13:10:49;;;;;;;9.23;4.00;;;18.60;64.20;;;;;;5105458;28;20044;-61
2022/05/04 13:13:20;;;;;;;7.47;4.00;;;18.70;61.30;;;;;;5105661;28;20031;-61
2022/05/04 13:15:52;;;;;;;9.00;4.07;;;18.80;61.10;;;;;;5097522;28;20039;-61
2022/05/04 13:18:19;;;;;;;9.32;4.43;;;18.60;60.00;;;;;;5102160;28;20032;-63
2022/05/04 13:20:45;;;;;;;9.25;4.20;;;18.00;59.30;;;;;;5103153;28;20397;-60
2022/05/04 13:23:11;;;;;;;7.38;3.80;;;17.50;61.30;;;;;;5111078;27;20050;-60
2022/05/04 13:25:37;;;;;;;7.95;4.30;;;17.40;60.90;;;;;;5092050;28;20478;-60
2022/05/04 13:28:03;;;;;;;8.60;4.35;;;17.10;61.80;;;;;;5109834;28;20434;-60
2022/05/04 13:30:30;;;;;;;10.70;4.05;;;17.30;62.70;;;;;;5109743;28;20043;-58
2022/05/04 13:32:56;;;;;;;8.52;4.35;;;17.40;59.90;;;;;;5106507;28;20496;-64
2022/05/04 13:35:22;;;;;;;9.18;4.22;;;17.30;61.60;;;;;;5105612;28;20042;-60
2022/05/04 13:37:48;;;;;;;7.68;3.75;;;17.40;59.60;;;;;;5099559;28;20040;-60
2022/05/04 13:40:14;;;;;;;9.38;4.40;;;17.70;62.00;;;;;;5093911;28;20032;-60
2022/05/04 13:42:41;;;;;;;9.40;3.80;;;17.50;60.80;;;;;;5095885;28;20116;-60
2022/05/04 13:45:11;;;;;;;9.63;4.68;;;17.40;62.00;;;;;;5093717;28;20208;-60
2022/05/04 13:47:38;;;;;;;8.15;4.38;;;17.00;61.10;;;;;;5097964;27;20039;-64
2022/05/04 13:50:04;;;;;;;12.00;4.03;;;17.20;63.00;;;;;;5087253;28;20601;-60
2022/05/04 13:55:14;;;;;;;;;;;17.60;64.10;;;;;;5088715;28;20067;-61
2022/05/04 13:57:40;;;;;;;9.60;3.95;;;17.80;62.20;;;;;;5083680;27;20007;-62
2022/05/04 14:00:07;;;;;;;14.43;4.47;;;18.20;63.00;;;;;;5077447;28;20536;-61
2022/05/04 14:02:33;;;;;;;10.90;4.47;;;18.50;63.00;;;;;;5082498;27;20055;-59
2022/05/04 14:04:59;;;;;;;8.43;3.70;;;18.70;61.30;;;;;;5081790;28;20054;-60
2022/05/04 14:07:25;;;;;;;9.50;3.80;;;18.70;59.60;;;;;;5085803;28;20044;-59
2022/05/04 14:09:50;;;;;;;11.02;3.92;;;18.00;59.40;;;;;;5090645;28;20054;-60
2022/05/04 14:12:16;;;;;;;10.23;3.85;;;18.00;59.40;;;;;;5101714;28;20047;-62
2022/05/04 14:17:27;;;;;;;11.55;4.15;;;17.60;60.50;;;;;;5098935;28;20071;-59
2022/05/04 14:19:52;;;;;;;9.70;5.20;;;17.10;59.30;;;;;;5099810;28;20035;-60
2022/05/04 14:22:18;;;;;;;11.65;4.50;;;17.10;62.30;;;;;;5097476;28;20031;-59
2022/05/04 14:24:44;;;;;;;21.00;5.55;;;17.00;61.20;;;;;;5099616;28;20031;-62
2022/05/04 14:27:10;;;;;;;27.02;8.60;;;16.90;61.40;;;;;;5092902;28;20044;-60
2022/05/04 14:29:36;;;;;;;11.02;4.72;;;16.80;61.70;;;;;;5078965;28;20046;-60
2022/05/04 14:32:03;;;;;;;14.85;4.97;;;16.90;62.50;;;;;;5093039;28;20330;-61
2022/05/04 14:34:29;;;;;;;10.20;4.70;;;17.10;62.30;;;;;;5088389;28;20501;-58
2022/05/04 14:36:55;;;;;;;12.00;5.50;;;16.80;61.90;;;;;;5088681;28;20044;-59
2022/05/04 14:39:21;;;;;;;11.70;5.10;;;16.60;63.40;;;;;;5090125;28;20039;-63
2022/05/04 14:41:47;;;;;;;10.32;4.47;;;16.30;63.10;;;;;;5089167;28;20077;-60
2022/05/04 14:44:13;;;;;;;11.20;5.10;;;16.20;64.10;;;;;;5092727;28;20047;-63
2022/05/04 14:46:39;;;;;;;11.25;5.10;;;16.10;64.80;;;;;;5095393;28;20814;-61
2022/05/04 14:49:04;;;;;;;10.32;4.82;;;16.10;65.00;;;;;;5088474;28;20219;-59
2022/05/04 14:51:30;;;;;;;9.23;4.53;;;16.20;65.00;;;;;;5093567;28;20387;-59
2022/05/04 14:53:56;;;;;;;11.93;5.18;;;16.30;65.60;;;;;;5071380;28;20102;-64
2022/05/04 14:56:21;;;;;;;10.05;5.20;;;16.30;65.30;;;;;;5090050;28;20035;-61
2022/05/04 14:58:48;;;;;;;11.95;4.47;;;16.10;64.60;;;;;;5076892;28;20048;-61
2022/05/04 15:01:14;;;;;;;9.55;4.80;;;16.00;65.40;;;;;;5098246;28;20599;-61
2022/05/04 15:06:27;;;;;;;11.20;5.45;;;16.10;66.00;;;;;;5088562;28;20324;-64
2022/05/04 15:08:53;;;;;;;10.57;4.75;;;16.20;66.50;;;;;;5092221;28;20035;-59
2022/05/04 15:11:21;;;;;;;8.90;4.63;;;16.30;65.70;;;;;;5096551;28;20408;-57
2022/05/04 15:13:47;;;;;;;10.05;5.03;;;16.30;66.20;;;;;;5092430;28;20040;-59
2022/05/04 15:16:13;;;;;;;9.50;5.18;;;16.30;65.40;;;;;;5092606;28;20058;-59
2022/05/04 15:18:39;;;;;;;10.60;5.47;;;16.20;65.30;;;;;;5090846;28;20601;-64
2022/05/04 15:21:05;;;;;;;8.80;6.03;;;15.80;64.10;;;;;;5091231;28;20032;-64
2022/05/04 15:23:31;;;;;;;8.45;5.43;;;15.30;65.50;;;;;;5096076;28;20354;-60
2022/05/04 15:25:57;;;;;;;9.65;4.60;;;15.20;66.70;;;;;;5094202;28;20032;-58
2022/05/04 15:28:22;;;;;;;9.20;4.68;;;15.20;67.30;;;;;;5083891;28;20606;-61
2022/05/04 15:30:48;;;;;;;10.48;5.22;;;15.30;68.20;;;;;;5089097;28;20044;-57
2022/05/04 15:33:15;;;;;;;13.07;5.70;;;15.40;67.70;;;;;;5095491;28;20043;-60
2022/05/04 15:35:40;;;;;;;10.30;5.10;;;15.40;67.70;;;;;;5088003;28;20039;-64
2022/05/04 15:38:06;;;;;;;8.52;5.00;;;15.40;67.70;;;;;;5090298;28;20091;-59
2022/05/04 15:40:34;;;;;;;8.60;4.82;;;15.30;67.90;;;;;;5098881;28;20126;-60
2022/05/04 15:42:59;;;;;;;11.80;5.20;;;15.30;67.80;;;;;;5090686;27;20035;-60
2022/05/04 15:45:25;;;;;;;10.45;4.82;;;15.30;68.00;;;;;;5094811;28;20028;-57
2022/05/04 15:47:52;;;;;;;12.20;4.60;;;15.40;68.10;;;;;;5098563;27;20074;-61
2022/05/04 15:50:18;;;;;;;14.93;5.05;;;15.40;67.90;;;;;;5100048;28;20028;-64
2022/05/04 15:52:44;;;;;;;9.90;4.25;;;15.30;67.80;;;;;;5100287;28;20432;-61
2022/05/04 15:55:10;;;;;;;9.63;4.82;;;15.30;68.00;;;;;;5105313;28;20028;-61
2022/05/04 15:57:36;;;;;;;7.90;4.38;;;15.20;68.10;;;;;;5102071;28;20043;-59
2022/05/04 16:00:06;;;;;;;11.05;6.25;;;15.20;68.60;;;;;;5100144;28;20549;-59
2022/05/04 16:05:16;;;;;;;12.68;4.40;;;15.00;68.70;;;;;;5102445;28;20138;-60
2022/05/04 16:07:43;;;;;;;13.10;4.22;;;14.90;69.60;;;;;;5100219;28;20115;-59
2022/05/04 16:10:09;;;;;;;10.60;4.68;;;14.80;70.20;;;;;;5101557;28;20038;-60
2022/05/04 16:12:35;;;;;;;8.88;4.35;;;14.70;70.30;;;;;;5084129;22;20055;-56
2022/05/04 16:15:00;;;;;;;8.77;3.88;;;14.60;70.40;;;;;;5032897;28;20255;-60
2022/05/04 16:22:55;;;;;;;9.43;4.15;;;14.50;70.90;;;;;;5004876;28;20040;-59
2022/05/04 16:25:21;;;;;;;9.85;4.38;;;14.40;71.10;;;;;;5007270;28;20059;-58
2022/05/04 16:27:47;;;;;;;10.40;4.25;;;14.40;71.50;;;;;;5013444;28;20073;-55
2022/05/04 16:30:13;;;;;;;10.18;4.40;;;14.30;71.60;;;;;;5034077;28;20045;-56
2022/05/04 16:32:39;;;;;;;9.82;3.53;;;14.20;72.00;;;;;;5016297;28;20103;-56
2022/05/04 16:35:06;;;;;;;9.43;4.10;;;14.20;72.00;;;;;;5017644;28;20466;-57
2022/05/04 16:37:32;;;;;;;11.63;4.15;;;14.10;71.90;;;;;;5016647;28;20049;-60
2022/05/04 16:39:58;;;;;;;12.98;4.20;;;14.20;72.90;;;;;;5041298;28;20040;-60
2022/05/04 16:42:24;;;;;;;10.00;3.90;;;14.20;72.50;;;;;;5016574;28;20272;-57
2022/05/04 16:44:50;;;;;;;12.70;4.10;;;14.20;72.60;;;;;;5029660;28;20041;-58
2022/05/04 16:47:16;;;;;;;10.82;3.78;;;14.20;72.40;;;;;;5028043;28;20408;-56
2022/05/04 16:49:42;;;;;;;10.75;4.05;;;14.20;72.60;;;;;;5026468;28;20159;-56
2022/05/04 16:52:09;;;;;;;12.38;4.75;;;14.20;72.80;;;;;;5028391;28;20290;-59
2022/05/04 16:54:35;;;;;;;8.05;3.88;;;14.20;72.40;;;;;;5027747;28;20504;-58
2022/05/04 16:57:01;;;;;;;7.05;4.22;;;14.20;72.40;;;;;;5014238;28;20040;-59
2022/05/04 16:59:27;;;;;;;9.13;4.38;;;14.20;72.50;;;;;;5030678;28;20071;-56
2022/05/04 17:01:53;;;;;;;9.52;4.22;;;14.20;72.20;;;;;;5009938;28;20032;-57
2022/05/04 17:04:19;;;;;;;13.77;4.88;;;14.20;72.70;;;;;;5048826;28;20040;-55
2022/05/04 17:06:45;;;;;;;9.57;5.00;;;14.20;73.20;;;;;;5029795;28;20037;-57
2022/05/04 17:09:11;;;;;;;8.93;4.40;;;14.20;73.30;;;;;;5013730;28;20553;-62
2022/05/04 17:11:37;;;;;;;8.50;4.38;;;14.10;73.60;;;;;;5029835;28;20041;-59
2022/05/04 17:14:04;;;;;;;11.15;4.38;;;14.20;73.70;;;;;;5030641;28;20063;-56
2022/05/04 17:16:29;;;;;;;8.52;3.92;;;14.10;73.70;;;;;;5027472;28;20480;-57
2022/05/04 17:18:55;;;;;;;8.38;4.82;;;14.20;74.80;;;;;;5031169;28;20128;-57
2022/05/04 17:21:21;;;;;;;10.75;4.00;;;14.10;74.30;;;;;;5030902;28;20048;-56
2022/05/04 17:23:47;;;;;;;11.93;4.18;;;14.10;74.50;;;;;;5026248;28;20048;-60
2022/05/04 17:26:13;;;;;;;9.02;3.53;;;14.10;74.80;;;;;;5030260;28;20033;-57
2022/05/04 17:28:39;;;;;;;11.25;3.70;;;14.10;75.40;;;;;;5044636;28;20095;-55
2022/05/04 17:31:04;;;;;;;9.95;3.78;;;14.20;75.90;;;;;;5012707;28;20122;-56
2022/05/04 17:38:59;;;;;;;12.05;4.38;;;14.30;74.40;;;;;;5024190;28;20080;-55
2022/05/04 17:41:25;;;;;;;12.57;3.50;;;14.20;74.30;;;;;;5025171;28;20087;-57
2022/05/04 17:43:51;;;;;;;7.57;3.80;;;14.10;74.30;;;;;;5009600;28;20131;-57
2022/05/04 17:46:16;;;;;;;7.82;3.25;;;14.00;74.80;;;;;;5030603;28;20045;-60
2022/05/04 17:48:42;;;;;;;7.97;3.83;;;14.00;75.20;;;;;;5048124;28;20041;-57
2022/05/04 17:51:08;;;;;;;9.25;3.45;;;14.10;75.10;;;;;;5012855;28;20045;-56
2022/05/04 17:53:34;;;;;;;10.65;4.55;;;14.00;74.60;;;;;;5047652;28;20036;-57
2022/05/04 17:56:02;;;;;;;9.50;4.68;;;13.90;74.50;;;;;;5030135;28;20052;-55
2022/05/04 17:58:28;;;;;;;12.20;4.50;;;13.80;75.00;;;;;;5012473;28;20055;-56
2022/05/04 18:00:54;;;;;;;8.43;3.75;;;13.70;75.60;;;;;;5029759;28;20102;-61
2022/05/04 18:03:35;;;;;;;12.15;4.45;;;13.60;76.10;;;;;;5012487;28;20045;-59
2022/05/04 18:06:04;;;;;;;9.52;3.17;;;13.50;76.20;;;;;;5035642;28;20037;-55
2022/05/04 18:08:31;;;;;;;9.65;3.92;;;13.40;76.70;;;;;;5028498;28;20032;-57
2022/05/04 18:10:56;;;;;;;7.10;3.60;;;13.40;77.20;;;;;;5029987;28;20077;-57
2022/05/04 18:13:22;;;;;;;11.77;3.55;;;13.40;77.10;;;;;;5026392;28;20045;-61
2022/05/04 18:15:48;;;;;;;8.50;3.50;;;13.30;78.00;;;;;;5030134;28;20080;-57
2022/05/04 18:18:14;;;;;;;7.93;3.58;;;13.20;77.70;;;;;;5009910;28;20086;-55
2022/05/04 18:20:39;;;;;;;8.43;3.65;;;13.20;78.20;;;;;;5047040;28;20033;-56
2022/05/04 18:23:06;;;;;;;10.35;4.03;;;13.10;78.40;;;;;;5028269;28;20484;-56
2022/05/04 18:25:32;;;;;;;7.85;3.35;;;13.10;78.20;;;;;;5022948;28;20121;-56
2022/05/04 18:27:58;;;;;;;8.20;3.40;;;13.00;78.60;;;;;;5035705;28;20053;-60
2022/05/04 18:30:24;;;;;;;7.97;3.22;;;12.90;78.90;;;;;;5020913;28;20063;-58
2022/05/04 18:32:50;;;;;;;13.55;3.67;;;12.80;79.10;;;;;;5006512;28;20063;-58
2022/05/04 18:35:19;;;;;;;10.15;3.67;;;12.80;79.40;;;;;;5012078;28;20072;-56
2022/05/04 18:37:45;;;;;;;9.48;3.58;;;12.70;79.70;;;;;;5004074;28;20423;-57
2022/05/04 18:40:12;;;;;;;13.35;4.88;;;12.60;80.20;;;;;;5026940;28;20041;-57
2022/05/04 18:42:37;;;;;;;16.23;7.35;;;12.60;81.00;;;;;;5026175;28;20071;-59
2022/05/04 18:45:04;;;;;;;16.00;7.30;;;12.60;81.30;;;;;;5029130;28;20543;-57
2022/05/04 18:47:30;;;;;;;13.35;5.22;;;12.50;81.90;;;;;;5029099;28;20110;-57
2022/05/04 18:49:55;;;;;;;10.65;4.40;;;12.40;82.10;;;;;;5033734;28;20507;-56
2022/05/04 18:52:21;;;;;;;7.95;3.78;;;12.30;82.40;;;;;;5028097;28;20060;-55
2022/05/04 18:54:47;;;;;;;11.52;3.40;;;12.20;83.20;;;;;;5028659;28;20676;-56
2022/05/04 18:57:12;;;;;;;10.88;4.80;;;12.10;84.10;;;;;;5007743;28;20571;-61
2022/05/04 18:59:39;;;;;;;15.05;4.60;;;12.10;84.50;;;;;;4990409;28;20038;-58
2022/05/04 19:02:06;;;;;;;6.70;3.90;;;12.00;84.70;;;;;;5015703;28;20037;-58
2022/05/04 19:04:32;;;;;;;6.80;3.88;;;11.90;84.90;;;;;;5022071;28;20048;-57
2022/05/04 19:06:58;;;;;;;8.82;3.50;;;11.90;85.10;;;;;;4996379;28;20459;-57
2022/05/04 19:09:24;;;;;;;8.90;3.38;;;11.80;85.60;;;;;;5011966;28;20091;-56
2022/05/04 19:11:50;;;;;;;6.95;3.35;;;11.80;86.00;;;;;;5005895;28;20029;-57
2022/05/04 19:14:16;;;;;;;12.27;3.75;;;11.80;86.40;;;;;;4997091;28;20099;-56
2022/05/04 19:16:44;;;;;;;10.18;3.97;;;11.70;87.00;;;;;;5014307;28;20049;-57
2022/05/04 19:19:14;;;;;;;15.95;4.40;;;11.60;87.60;;;;;;5038075;22;20134;-61
2022/05/04 19:21:40;;;;;;;10.95;3.58;;;11.60;88.30;;;;;;5035818;28;20143;-62
2022/05/04 19:24:06;;;;;;;9.77;3.92;;;11.60;88.90;;;;;;5055973;28;20119;-61
2022/05/04 19:26:32;;;;;;;11.45;4.60;;;11.50;89.50;;;;;;5037644;28;20033;-63
2022/05/04 19:28:58;;;;;;;7.22;3.97;;;11.50;90.00;;;;;;5055073;28;20178;-62
2022/05/04 19:31:28;;;;;;;6.38;3.75;;;11.40;90.10;;;;;;5036406;28;20040;-62
2022/05/04 19:33:54;;;;;;;12.63;4.55;;;11.40;90.10;;;;;;5055165;28;20037;-61
2022/05/04 19:36:20;;;;;;;9.30;3.63;;;11.30;90.40;;;;;;5039147;28;20052;-61
2022/05/04 19:38:46;;;;;;;8.00;4.13;;;11.30;90.60;;;;;;5052188;28;20078;-61
2022/05/04 19:41:12;;;;;;;9.43;4.03;;;11.20;90.70;;;;;;5051978;28;20028;-62
2022/05/04 19:43:37;;;;;;;10.05;4.22;;;11.20;90.90;;;;;;5033630;28;20045;-61
2022/05/04 19:46:03;;;;;;;10.23;4.20;;;11.20;91.10;;;;;;5014089;28;20044;-62
2022/05/04 19:48:29;;;;;;;8.85;4.00;;;11.10;91.30;;;;;;5018820;28;20048;-61
2022/05/04 19:50:55;;;;;;;10.23;4.70;;;11.10;91.50;;;;;;5037269;28;20072;-61
2022/05/04 19:53:21;;;;;;;11.50;4.63;;;11.10;91.70;;;;;;5057063;28;20177;-61
2022/05/04 19:55:47;;;;;;;9.23;4.20;;;11.00;92.00;;;;;;5016351;28;20364;-61
2022/05/04 19:58:13;;;;;;;10.80;4.00;;;11.00;92.20;;;;;;5048238;28;20036;-61
2022/05/04 20:00:39;;;;;;;11.02;4.38;;;10.90;92.20;;;;;;5056660;28;20517;-61
2022/05/04 20:03:05;;;;;;;7.47;4.07;;;10.90;92.30;;;;;;5057209;28;20059;-62
2022/05/04 20:05:30;;;;;;;12.80;4.35;;;10.80;92.50;;;;;;5033078;28;20036;-63
2022/05/04 20:07:56;;;;;;;14.07;4.53;;;10.80;92.70;;;;;;5043600;28;20250;-62
2022/05/04 20:10:22;;;;;;;10.73;4.20;;;10.80;92.90;;;;;;5032276;28;20117;-60
2022/05/04 20:12:48;;;;;;;9.75;4.72;;;10.80;93.10;;;;;;5040700;28;20055;-60
2022/05/04 20:15:13;;;;;;;10.40;4.97;;;10.80;93.20;;;;;;5027971;28;20638;-61
2022/05/04 20:17:39;;;;;;;9.50;4.57;;;10.70;93.30;;;;;;5042541;28;20086;-61
2022/05/04 20:20:05;;;;;;;11.57;5.03;;;10.70;93.60;;;;;;5058671;28;20106;-61
2022/05/04 20:22:31;;;;;;;12.35;5.32;;;10.60;93.70;;;;;;5056505;28;20048;-63
2022/05/04 20:25:00;;;;;;;11.10;5.20;;;10.60;93.90;;;;;;5055778;28;20033;-61
2022/05/04 20:27:28;;;;;;;12.80;5.15;;;10.60;94.00;;;;;;5021519;28;20037;-61
2022/05/04 20:29:55;;;;;;;11.10;5.22;;;10.50;94.10;;;;;;5057008;28;20090;-61
2022/05/04 20:32:21;;;;;;;11.95;5.07;;;10.50;94.30;;;;;;5058776;28;20056;-61
2022/05/04 20:34:46;;;;;;;10.73;6.25;;;10.40;94.50;;;;;;5055988;28;20044;-61
2022/05/04 20:37:12;;;;;;;13.85;5.75;;;10.40;94.70;;;;;;5039851;28;20033;-62
2022/05/04 20:39:38;;;;;;;10.60;5.40;;;10.40;94.80;;;;;;5044944;28;20112;-61
2022/05/04 20:42:05;;;;;;;11.57;5.40;;;10.30;95.10;;;;;;5044989;28;20657;-61
2022/05/04 20:44:31;;;;;;;13.13;6.68;;;10.30;95.20;;;;;;5055479;28;20033;-61
2022/05/04 20:46:57;;;;;;;13.93;6.93;;;10.20;95.40;;;;;;5058782;28;20521;-62